CCGS Louis S. St-Laurent — CGBN — position and weather

sailwx.info

Track history (hours):
 
Tides and Currents Weather Stations Pressure Air Temp Water Temp Dewpoint Dewpoint Depression Visibility Wind Speed Wind Dir Waves Ship Positions

Oceanographic research ship CCGS Louis S. St-Laurent (Canada)

Detailed information on ship capabilities available from ARCUS's ALIAS (Arctic Logistics Information and Support) project.

Last reported at 2017-Sep-26 05:00 UTC. Time now 2017-Sep-26 05:56 UTC.
Position N 73°00' W 139°48'.

Length 119.63 m; beam 24.38 m; draft 9.9 m.

MMSI: 316165000.

Wind from 320 at 10 knots

Barometer 1012.0 mb
Air temperature -1.4 ° C
Dewpoint -5.3 ° C

Date/timePositionNaut miles runAvg speedWind from/ knotsBaromVisibWave heightAir tempDewpointWater temp
2017-Sep-26 05:00N 73°00' W 139°48'7 7.0 320 / 101012.0 -1.4-5.3
2017-Sep-26 04:00N 72°54' W 140°00'0 0.0 330 / 131011.8 -1.3-4.7
2017-Sep-26 03:00N 72°54' W 140°00'6 6.3 340 / 151011.5 -1.0-3.3
2017-Sep-26 02:00N 73°00' W 139°54'1212.0 340 / 131010.9 -0.8-2.3
2017-Sep-26 01:00N 73°12' W 139°54'1212.0 350 / 121010.4 -0.7-2.2
2017-Sep-26 00:00N 73°24' W 139°54'3015.0 350 / 151009.9 -0.8-1.9
2017-Sep-25 22:00N 73°54' W 139°54'0 0.0 350 / 141008.9 -0.7-1.4
2017-Sep-25 21:00N 73°54' W 139°54'0 0.0 360 / 141008.2 -1.1-1.7
2017-Sep-25 20:00N 73°54' W 139°54'0 0.0 290 / 91007.9 -0.4-0.5
2017-Sep-25 19:00N 73°54' W 139°54'0 0.0 280 / 101007.6 -0.6-0.8
2017-Sep-25 18:00N 73°54' W 139°54'6 6.2 200 / 21007.4 0.3-0.4
2017-Sep-25 17:00N 74°00' W 140°00'9 8.9 280 / 91007.3 -0.8-1.1
2017-Sep-25 16:00N 74°06' W 140°24'1413.7 260 / 91007.3 -1.1-1.3
2017-Sep-25 15:00N 74°18' W 140°48'1010.1 260 / 111007.3 -1.2-1.3
2017-Sep-25 14:00N 74°24' W 141°18'1515.4 250 / 111007.2 -1.2-1.3
2017-Sep-25 13:00N 74°36' W 141°54'1515.3 250 / 121007.1 -1.1-1.2
2017-Sep-25 12:00N 74°48' W 142°30'1515.2 240 / 121007.0 -1.1-1.3
2017-Sep-25 11:00N 75°00' W 143°06'1616.1 230 / 131007.0 -1.2-1.4
2017-Sep-25 10:00N 75°12' W 143°48'1515.1 230 / 151007.0 -1.1-1.3
2017-Sep-25 09:00N 75°24' W 144°24'1414.2 230 / 161006.9 -1.0-1.2
2017-Sep-25 08:00N 75°36' W 144°54'0 0.0 220 / 131007.3 -0.9-1.1
2017-Sep-25 07:00N 75°36' W 144°54'1 1.5 210 / 121007.8 -1.1-1.3
2017-Sep-25 06:00N 75°36' W 145°00'8 8.5 210 / 131008.1 -1.3-1.4
2017-Sep-25 05:00N 75°30' W 145°24'1313.5 210 / 141008.7 -1.0-1.2
2017-Sep-25 04:00N 75°24' W 146°12'1110.6 210 / 141009.2 -0.9-1.0
2017-Sep-25 03:00N 75°24' W 146°54'1514.9 210 / 141009.5 -0.7-0.9
2017-Sep-25 02:00N 75°18' W 147°48'1413.6 210 / 131009.8 -0.7-0.9
2017-Sep-25 01:00N 75°12' W 148°36'2613.0 210 / 141010.4 -0.5-0.7
2017-Sep-24 23:00N 75°00' W 150°06'0 0.0 230 / 131011.5 -0.1-0.2
2017-Sep-24 22:00N 75°00' W 150°06'2 1.6 210 / 121012.0 -0.4-0.7
2017-Sep-24 21:00N 75°00' W 150°12'0 0.0 220 / 101012.6 -0.5-0.8
2017-Sep-24 20:00N 75°00' W 150°12'0 0.0 220 / 101012.9 -0.1-1.0
2017-Sep-24 19:00N 75°00' W 150°12'2 1.6 240 / 111013.2 -0.2-1.1
2017-Sep-24 18:00N 75°00' W 150°18'0 0.0 140 / 11013.6 1.2-1.1
2017-Sep-24 17:00N 75°00' W 150°18'9 8.7 220 / 81013.8 0.5-1.6
2017-Sep-24 16:00N 74°54' W 149°54'6 6.0 240 / 101014.6 0.2-2.0
2017-Sep-24 15:00N 75°00' W 149°54'0 0.0 230 / 101015.1 0.2-1.9
2017-Sep-24 14:00N 75°00' W 149°54'6 6.0 200 / 81015.9 0.8-1.6
2017-Sep-24 13:00N 74°54' W 149°54'0 0.0 220 / 111016.4 0.1-2.1
2017-Sep-24 12:00N 74°54' W 149°54'6 6.0 220 / 111016.7 0.1-1.8
2017-Sep-24 11:00N 75°00' W 149°54'0 0.0 210 / 111017.3 0.1-1.6
2017-Sep-24 10:00N 75°00' W 149°54'0 0.0 240 / 81017.9 0.3-1.5
2017-Sep-24 09:00N 75°00' W 149°54'9 9.3 240 / 81018.4 0.3-1.1
2017-Sep-24 08:00N 75°00' W 150°30'1515.2 220 / 161018.4 0.4-1.6
2017-Sep-24 07:00N 75°06' W 151°24'1515.1 220 / 171018.7 0.4-1.7
2017-Sep-24 06:00N 75°12' W 152°18'1515.0 240 / 221018.8 0.6-2.4
2017-Sep-24 05:00N 75°18' W 153°12'2 1.5 220 / 131019.0 0.9-2.1
2017-Sep-24 04:00N 75°18' W 153°18'0 0.0 240 / 181019.5 0.1-2.1
2017-Sep-24 03:00N 75°18' W 153°18'0 0.0 230 / 161020.0 0.5-1.4
2017-Sep-24 02:00N 75°18' W 153°18'7 6.7 210 / 91020.7 0.8-0.9
2017-Sep-24 01:00N 75°12' W 153°06'1918.6 220 / 91021.3 0.7-0.6
2017-Sep-24 00:00N 74°54' W 152°48'1312.9 240 / 101022.1 0.7-0.9
2017-Sep-23 23:00N 74°42' W 152°30'1312.9 240 / 81022.9 0.9-0.8
2017-Sep-23 22:00N 74°30' W 152°12'0 0.0 250 / 61023.5 1.3-0.5
2017-Sep-23 21:00N 74°30' W 152°12'2 1.6 270 / 51023.8 1.3-0.7
2017-Sep-23 20:00N 74°30' W 152°18'2 1.6 240 / 11024.1 1.9-0.5
2017-Sep-23 19:00N 74°30' W 152°24'1616.5 280 / 61024.2 1.0-1.0
2017-Sep-23 18:00N 74°18' W 153°06'1414.3 300 / 71024.6 0.9-1.1
2017-Sep-23 17:00N 74°12' W 153°54'1414.4 220 / 41024.9 0.9-1.5
2017-Sep-23 16:00N 74°06' W 154°42'8 7.8 210 / 41025.0 0.7-2.1
2017-Sep-23 15:00N 74°00' W 155°00'0 0.0 1025.3 2.6-1.6
2017-Sep-23 14:00N 74°00' W 155°00'6 6.0 220 / 21025.6 2.3-1.8
2017-Sep-23 13:00N 73°54' W 155°00'7 6.9 250 / 41025.8 1.4-1.9
2017-Sep-23 12:00N 73°48' W 155°12'1212.1 140 / 31025.8 0.6-2.6
2017-Sep-23 11:00N 73°36' W 155°18'1212.1 110 / 71025.8 0.7-2.7
2017-Sep-23 10:00N 73°24' W 155°24'1313.1 100 / 81025.8 0.7-2.9
2017-Sep-23 09:00N 73°12' W 155°42'1818.1 070 / 111025.7 0.7-2.8
2017-Sep-23 08:00N 72°54' W 155°48'1312.5 090 / 141025.4 0.7-2.5
2017-Sep-23 07:00N 72°42' W 156°00'1312.5 070 / 151025.0 0.8-2.4
2017-Sep-23 06:00N 72°30' W 156°12'6 6.3 070 / 171024.7 1.0-2.0
2017-Sep-23 05:00N 72°24' W 156°18'0 0.0 070 / 151025.0 0.9-2.1
2017-Sep-23 04:00N 72°24' W 156°18'1212.1 070 / 171024.6 0.9-2.0
2017-Sep-23 03:00N 72°12' W 156°24'3115.3 060 / 191024.3 1.2-1.6
2017-Sep-23 01:00N 71°42' W 156°42'1818.4 060 / 191023.6 1.5-1.5
2017-Sep-23 00:00N 71°24' W 156°54'6 6.3 070 / 191023.3 1.6-1.7
2017-Sep-22 23:00N 71°18' W 157°00'2 1.9 060 / 31023.9 2.2-0.5
2017-Sep-22 22:00N 71°18' W 156°54'0 0.0 060 / 51024.0 2.1-0.4
2017-Sep-22 21:00N 71°18' W 156°54'1313.3 050 / 51024.2 3.4-0.0
2017-Sep-22 20:00N 71°30' W 156°36'8 8.3 040 / 101024.5 3.5-0.3
2017-Sep-22 19:00N 71°36' W 156°18'1313.3 050 / 161024.8 2.1 0.2
2017-Sep-22 18:00N 71°36' W 155°36'1515.2 070 / 201024.6 1.3-0.3
2017-Sep-22 17:00N 71°36' W 154°48'1515.2 070 / 211024.6 1.2-1.4
2017-Sep-22 16:00N 71°36' W 154°00'1817.9 070 / 201024.3 1.2-1.4
2017-Sep-22 15:00N 71°24' W 153°18'1313.4 080 / 231024.0 1.1-0.9
2017-Sep-22 14:00N 71°24' W 152°36'10 9.6 070 / 201024.0 1.0-0.5
2017-Sep-22 13:00N 71°24' W 152°06'2 1.9 060 / 221023.7 1.0-0.3
2017-Sep-22 12:00N 71°24' W 152°00'2 1.9 060 / 151023.9 1.6-1.2
2017-Sep-22 11:00N 71°24' W 151°54'0 0.0 100 / 171024.1 1.5-1.0
2017-Sep-22 10:00N 71°24' W 151°54'6 6.0 080 / 211024.1 1.7-0.6
2017-Sep-22 09:00N 71°30' W 151°54'0 0.0 040 / 111024.8 2.0-0.9
2017-Sep-22 08:00N 71°30' W 151°54'2 1.9 080 / 191024.9 1.7-0.8
2017-Sep-22 07:00N 71°30' W 151°48'2 1.9 070 / 211025.1 1.6-1.1
2017-Sep-22 06:00N 71°30' W 151°42'2 1.9 080 / 181025.5 1.4-0.6
2017-Sep-22 05:00N 71°30' W 151°36'0 0.0 070 / 221025.4 2.0-1.0
2017-Sep-22 04:00N 71°30' W 151°36'10 9.7 060 / 171025.5 2.1 0.4
2017-Sep-22 03:00N 71°36' W 151°12'4 3.8 070 / 221025.7 1.6 0.5
2017-Sep-22 02:00N 71°36' W 151°24'0 0.0 080 / 211026.2 2.5-0.4
2017-Sep-22 01:00N 71°36' W 151°24'7 7.1 070 / 201026.7 2.8 0.5
2017-Sep-22 00:00N 71°42' W 151°12'0 0.0 360 / 41027.3 3.5 0.6
2017-Sep-21 23:00N 71°42' W 151°12'2 1.9 080 / 161027.4 2.9-2.0
2017-Sep-21 22:00N 71°42' W 151°06'2 1.9 090 / 151028.0 2.8-3.2
2017-Sep-21 21:00N 71°42' W 151°00'1515.2 080 / 151028.4 3.1-1.9
2017-Sep-21 20:00N 71°54' W 150°30'4 3.7 080 / 161028.7 2.9-0.6
2017-Sep-21 19:00N 71°54' W 150°18'0 0.0 090 / 161028.7 2.7-1.9
2017-Sep-21 18:00N 71°54' W 150°18'6 6.3 080 / 131028.8 2.9-1.4
2017-Sep-21 17:00N 72°00' W 150°12'1818.1 090 / 111029.1 3.1-1.6
2017-Sep-21 16:00N 72°18' W 150°06'1212.1 080 / 111029.7 2.7-1.0
2017-Sep-21 15:00N 72°30' W 150°00'1818.0 050 / 41029.9 2.6-1.4
2017-Sep-21 14:00N 72°48' W 150°00'1212.0 330 / 41030.1 2.5-1.2
2017-Sep-21 13:00N 73°00' W 150°00'0 0.0 300 / 61030.2 2.7-0.3
2017-Sep-21 12:00N 73°00' W 150°00'0 0.0 310 / 71030.0 2.7-0.4
2017-Sep-21 11:00N 73°00' W 150°00'6 6.0 310 / 81030.0 2.8-0.5
2017-Sep-21 10:00N 73°06' W 150°00'1212.0 260 / 71029.4 2.5 1.3
2017-Sep-21 09:00N 73°18' W 150°00'1212.0 250 / 71029.1 2.1 1.4
2017-Sep-21 08:00N 73°30' W 150°00'1818.0 240 / 61028.8 1.8 1.1
2017-Sep-21 07:00N 73°48' W 150°00'1212.0 230 / 81028.1 1.7 0.8
2017-Sep-21 06:00N 74°00' W 150°00'0 0.0 260 / 81027.9 1.4 0.4
2017-Sep-21 05:00N 74°00' W 150°00'0 0.0 280 / 101027.7 1.8 0.2
2017-Sep-21 04:00N 74°00' W 150°00'6 6.2 280 / 101027.2 1.8-0.0
2017-Sep-21 03:00N 74°06' W 149°54'1212.0 260 / 121026.2 2.1 0.4
2017-Sep-21 02:00N 74°18' W 149°54'1818.0
2017-Sep-21 01:00N 74°36' W 149°54'1212.0
2017-Sep-21 00:00N 74°48' W 149°54'1212.0 250 / 151023.5 1.6 0.6
2017-Sep-20 23:00N 75°00' W 149°54'0 0.0 210 / 21023.4 2.0 0.4
2017-Sep-20 22:00N 75°00' W 149°54'0 0.0 260 / 131022.9 0.9 0.1
2017-Sep-20 21:00N 75°00' W 149°54'0 0.0 260 / 141022.3 0.8-0.0
2017-Sep-20 20:00N 75°00' W 149°54'0 0.0 270 / 141021.9 0.7 0.2
2017-Sep-20 19:00N 75°00' W 149°54'2 1.6 300 / 121021.4 0.9 0.4
2017-Sep-20 18:00N 75°00' W 150°00'1212.0 240 / 151020.4 0.5 0.3
2017-Sep-20 17:00N 75°12' W 150°00'1818.0 210 / 141019.6 0.6 0.1
2017-Sep-20 16:00N 75°30' W 150°00'2412.0 200 / 141018.9 0.5-0.3
2017-Sep-20 14:00N 75°54' W 149°54'0 0.0 240 / 141018.2 0.6-0.3
2017-Sep-20 13:00N 75°54' W 149°54'0 0.0 240 / 161017.9 0.4-0.5
2017-Sep-20 12:00N 75°54' W 149°54'1212.1 240 / 151017.7 0.4-0.8
2017-Sep-20 11:00N 76°06' W 150°00'1212.0 250 / 151016.7 0.6-1.4
2017-Sep-20 10:00N 76°18' W 150°00'1818.1 240 / 121015.9 -0.1-1.1
2017-Sep-20 09:00N 76°36' W 149°54'1212.0 230 / 131015.2 0.1-1.1
2017-Sep-20 08:00N 76°48' W 149°54'1212.0 230 / 121014.5 -0.3-1.0
2017-Sep-20 07:00N 77°00' W 149°54'0 0.0 250 / 131014.2 -0.3-1.1
2017-Sep-20 06:00N 77°00' W 149°54'0 0.0 240 / 131013.9 -0.3-1.2
2017-Sep-20 05:00N 77°00' W 149°54'6 6.1 240 / 151013.6 -0.4-1.9
2017-Sep-20 04:00N 77°06' W 150°00'1212.0 220 / 131012.6 -0.5-2.7
2017-Sep-20 03:00N 77°18' W 150°00'1818.0 220 / 121012.1 -1.1-3.5
2017-Sep-20 02:00N 77°36' W 150°06'1212.0 250 / 151011.6 -1.1-4.0
2017-Sep-20 01:00N 77°48' W 150°06'1212.3 250 / 141010.8 -0.9-3.9
2017-Sep-20 00:00N 78°00' W 149°54'0 0.0 260 / 101010.9 -1.3-4.2
2017-Sep-19 23:00N 78°00' W 149°54'0 0.0 270 / 61010.8 -1.9-4.9
2017-Sep-19 22:00N 78°00' W 149°54'1 1.2 290 / 71010.5 -2.5-5.1
2017-Sep-19 21:00N 78°00' W 150°00'1 1.2 290 / 101010.2 -2.5-5.3
2017-Sep-19 20:00N 78°00' W 150°06'0 0.0 310 / 71010.0 -2.5-5.3
2017-Sep-19 19:00N 78°00' W 150°06'1 1.2 290 / 71009.6 -2.1-5.0
2017-Sep-19 18:00N 78°00' W 150°00'6 6.1 330 / 51008.9 -2.5-4.8
2017-Sep-19 17:00N 77°54' W 149°54'0 0.0 340 / 51008.5 -2.0-2.9
2017-Sep-19 16:00N 77°54' W 149°54'0 0.0 340 / 61008.2 -2.3-2.6
2017-Sep-19 15:00N 77°54' W 149°54'0 0.0 360 / 51007.7 -2.2-2.4
2017-Sep-19 14:00N 77°54' W 149°54'0 0.0 330 / 91007.3 -2.2-2.3
2017-Sep-19 13:00N 77°54' W 149°54'1 1.3 340 / 81006.7 -2.1-2.2
2017-Sep-19 12:00N 77°54' W 150°00'1010.1 340 / 61006.3 -1.7-1.8
2017-Sep-19 11:00N 77°54' W 149°12'1312.6 060 / 71006.1 -1.5-1.6
2017-Sep-19 10:00N 77°54' W 148°12'1717.5 140 / 71006.5 -1.2-1.3
2017-Sep-19 09:00N 77°42' W 147°12'1515.3 130 / 121006.8 -0.7-0.8
2017-Sep-19 08:00N 77°36' W 146°06'1313.1 130 / 121007.8 -0.9-0.9
2017-Sep-19 07:00N 77°30' W 145°12'1 1.3 130 / 111008.2 -0.7-0.8
2017-Sep-19 06:00N 77°30' W 145°06'0 0.0 170 / 91008.9 -1.0-1.1
2017-Sep-19 05:00N 77°30' W 145°06'0 0.0 170 / 101009.3 -1.1-1.2
2017-Sep-19 04:00N 77°30' W 145°06'1110.9 180 / 111009.4 -1.2-1.3
2017-Sep-19 03:00N 77°36' W 145°48'1313.0 170 / 161009.6 -1.3-1.4
2017-Sep-19 02:00N 77°42' W 146°42'1312.9 170 / 161010.0 -1.6-1.7
2017-Sep-19 01:00N 77°48' W 147°36'1414.0 160 / 161010.4 -1.6-1.7
2017-Sep-19 00:00N 77°54' W 148°36'1111.3 160 / 141010.9 -1.6-1.9
2017-Sep-18 23:00N 77°54' W 149°30'8 7.8 160 / 111011.7 -1.8-2.1
2017-Sep-18 22:00N 78°00' W 149°54'0 0.0 140 / 21012.3 -0.8-1.9
2017-Sep-18 21:00N 78°00' W 149°54'0 0.0 150 / 111012.5 -1.8-2.5
2017-Sep-18 20:00N 78°00' W 149°54'0 0.0 150 / 91012.8 -1.7-2.5
2017-Sep-18 19:00N 78°00' W 149°54'6 6.0 140 / 51012.9 -1.4-2.7
2017-Sep-18 18:00N 77°54' W 149°54'0 0.0 160 / 121013.0 -2.3-2.9
2017-Sep-18 17:00N 77°54' W 149°54'0 0.0 140 / 51013.3 -1.5-2.7
2017-Sep-18 16:00N 77°54' W 149°54'0 0.0 160 / 121013.5 -2.4-2.9
2017-Sep-18 15:00N 77°54' W 149°54'6 6.1 160 / 131013.5 -2.4-2.7
2017-Sep-18 14:00N 78°00' W 150°00'2 2.5 150 / 131013.7 -2.5-2.7
2017-Sep-18 13:00N 78°00' W 150°12'1211.6 160 / 151013.6 -2.6-2.8
2017-Sep-18 12:00N 78°06' W 151°00'10 9.5 170 / 161013.7 -2.7-2.9
2017-Sep-18 11:00N 78°12' W 151°36'10 9.8 160 / 131013.9 -2.7-2.9
2017-Sep-18 10:00N 78°12' W 152°24'1010.4 170 / 111013.9 -2.8-3.0
2017-Sep-18 09:00N 78°18' W 153°06'0 0.0 160 / 91014.2 -2.8-3.1
2017-Sep-18 08:00N 78°18' W 153°06'0 0.0 150 / 71014.4 -2.6-2.8
2017-Sep-18 07:00N 78°18' W 153°06'6 6.5 180 / 91014.4 -3.0-3.3
2017-Sep-18 06:00N 78°24' W 152°54'1111.3 160 / 81014.4 -3.6-3.9
2017-Sep-18 05:00N 78°30' W 152°06'2411.8 170 / 91014.6 -4.3-4.7
2017-Sep-18 03:00N 78°48' W 150°48'1111.1 240 / 41015.0 -5.8-6.4
2017-Sep-18 02:00N 78°54' W 150°00'1 1.2 240 / 61015.4 -6.2-6.8
2017-Sep-18 01:00N 78°54' W 149°54'0 0.0 250 / 71015.4 -6.1-6.7
2017-Sep-18 00:00N 78°54' W 149°54'0 0.0 280 / 61015.4 -6.1-6.8
2017-Sep-17 23:00N 78°54' W 149°54'1818.1 250 / 71015.0 -6.7-7.4
2017-Sep-17 22:00N 79°12' W 150°06'1818.1 270 / 91014.9 -7.7-8.6
2017-Sep-17 21:00N 79°30' W 149°54'1212.0 290 / 51015.3 -10.1-11.2
2017-Sep-17 20:00N 79°42' W 149°54'6 6.0 270 / 91014.9 -12.1-13.4
2017-Sep-17 19:00N 79°48' W 149°54'6 6.4 290 / 111014.7 -13.1-14.6
2017-Sep-17 18:00N 79°54' W 149°42'1 1.1 280 / 101014.6 -13.1-14.5
2017-Sep-17 17:00N 79°54' W 149°48'6 6.1 270 / 71014.6 -12.6-13.9
2017-Sep-17 16:00N 80°00' W 149°42'0 0.0 280 / 61014.5 -11.4-12.6
2017-Sep-17 15:00N 80°00' W 149°42'0 0.0 270 / 81014.3 -11.8-13.1
2017-Sep-17 14:00N 80°00' W 149°42'6 6.4 280 / 41014.4 -10.4-11.6
2017-Sep-17 13:00N 79°54' W 149°54'0 0.0 290 / 81014.6 -11.9-13.2
2017-Sep-17 12:00N 79°54' W 149°54'0 0.0 300 / 71014.7 -11.4-12.7
2017-Sep-17 11:00N 79°54' W 149°54'0 0.0 310 / 81014.8 -11.5-12.7
2017-Sep-17 10:00N 79°54' W 149°54'1110.5 310 / 91014.6 -10.9-12.1
2017-Sep-17 09:00N 79°54' W 148°54'1211.6 340 / 131014.2 -12.3-13.6
2017-Sep-17 08:00N 79°54' W 147°48'9 8.7 350 / 121014.2 -14.0-15.5
2017-Sep-17 07:00N 79°48' W 147°12'1312.8 350 / 111014.0 -13.7-15.2
2017-Sep-17 06:00N 79°48' W 146°00'1313.2 330 / 91013.9 -13.6-15.1
2017-Sep-17 05:00N 79°42' W 144°54'8 7.5 340 / 141013.8 -13.9-15.4
2017-Sep-17 04:00N 79°42' W 144°12'1 1.1 320 / 81014.0 -13.0-14.5
2017-Sep-17 03:00N 79°42' W 144°06'1312.7 290 / 91014.1 -12.8-14.3
2017-Sep-17 02:00N 79°54' W 143°42'7 6.8 300 / 91013.9 -13.0-14.5
2017-Sep-17 01:00N 80°00' W 143°24'1312.7 310 / 161013.7 -12.8-14.3
2017-Sep-17 00:00N 80°12' W 143°00'1111.2 320 / 131013.3 -12.6-14.1
2017-Sep-16 23:00N 80°12' W 141°54'1413.9 310 / 191013.4 -12.2-13.7
2017-Sep-16 22:00N 80°24' W 141°12'7 7.2 310 / 141013.1 -12.1-13.6
2017-Sep-16 21:00N 80°30' W 140°48'1 1.0 300 / 91013.5 -11.7-13.1
2017-Sep-16 20:00N 80°30' W 140°42'0 0.0 310 / 101013.4 -11.3-12.7
2017-Sep-16 19:00N 80°30' W 140°42'1 1.0 310 / 81013.7 -11.7-13.1
2017-Sep-16 18:00N 80°30' W 140°48'0 0.0 310 / 81013.8 -12.1-13.6
2017-Sep-16 17:00N 80°30' W 140°48'6 6.1 300 / 81014.1 -12.4-13.9
2017-Sep-16 16:00N 80°36' W 140°54'0 0.0 310 / 91014.2 -13.0-14.6
2017-Sep-16 15:00N 80°36' W 140°54'1 0.5 300 / 101014.4 -13.8-15.3
2017-Sep-16 13:00N 80°36' W 141°00'1 1.0 300 / 81015.0 -13.3-14.8
2017-Sep-16 12:00N 80°36' W 141°06'0 0.0 310 / 71015.4 -12.3-13.7
2017-Sep-16 11:00N 80°36' W 141°06'0 0.0 330 / 71015.7 -12.3-13.7
2017-Sep-16 10:00N 80°36' W 141°06'0 0.0 330 / 101015.8 -13.0-14.4
2017-Sep-16 09:00N 80°36' W 141°06'0 0.0 310 / 91016.0 -13.2-14.6
2017-Sep-16 08:00N 80°36' W 141°06'5 4.9 320 / 101016.1 -13.0-14.4
2017-Sep-16 07:00N 80°36' W 140°36'19 9.3 350 / 151015.5 -12.7-14.1
2017-Sep-16 05:00N 80°42' W 138°48'   360 / 161015.1 -12.4-13.8
Track history (hours):
 
Tides and Currents Weather Stations Pressure Air Temp Water Temp Dewpoint Dewpoint Depression Visibility Wind Speed Wind Dir Waves Ship Positions

Oceanographic research ship CCGS Louis S. St-Laurent (Canada)

Detailed information on ship capabilities available from ARCUS's ALIAS (Arctic Logistics Information and Support) project.

Last reported at 2017-Sep-26 05:00 UTC. Time now 2017-Sep-26 05:56 UTC.
Position N 73°00' W 139°48'.

Length 119.63 m; beam 24.38 m; draft 9.9 m.

MMSI: 316165000.

Wind from 320 at 10 knots

Barometer 1012.0 mb
Air temperature -1.4 ° C
Dewpoint -5.3 ° C

Date/timePositionNaut miles runAvg speedWind from/ knotsBaromVisibWave heightAir tempDewpointWater temp
2017-Sep-26 05:00N 73°00' W 139°48'7 7.0 320 / 101012.0 -1.4-5.3
2017-Sep-26 04:00N 72°54' W 140°00'0 0.0 330 / 131011.8 -1.3-4.7
2017-Sep-26 03:00N 72°54' W 140°00'6 6.3 340 / 151011.5 -1.0-3.3
2017-Sep-26 02:00N 73°00' W 139°54'1212.0 340 / 131010.9 -0.8-2.3
2017-Sep-26 01:00N 73°12' W 139°54'1212.0 350 / 121010.4 -0.7-2.2
2017-Sep-26 00:00N 73°24' W 139°54'3015.0 350 / 151009.9 -0.8-1.9
2017-Sep-25 22:00N 73°54' W 139°54'0 0.0 350 / 141008.9 -0.7-1.4
2017-Sep-25 21:00N 73°54' W 139°54'0 0.0 360 / 141008.2 -1.1-1.7
2017-Sep-25 20:00N 73°54' W 139°54'0 0.0 290 / 91007.9 -0.4-0.5
2017-Sep-25 19:00N 73°54' W 139°54'0 0.0 280 / 101007.6 -0.6-0.8
2017-Sep-25 18:00N 73°54' W 139°54'6 6.2 200 / 21007.4 0.3-0.4
2017-Sep-25 17:00N 74°00' W 140°00'9 8.9 280 / 91007.3 -0.8-1.1
2017-Sep-25 16:00N 74°06' W 140°24'1413.7 260 / 91007.3 -1.1-1.3
2017-Sep-25 15:00N 74°18' W 140°48'1010.1 260 / 111007.3 -1.2-1.3
2017-Sep-25 14:00N 74°24' W 141°18'1515.4 250 / 111007.2 -1.2-1.3
2017-Sep-25 13:00N 74°36' W 141°54'1515.3 250 / 121007.1 -1.1-1.2
2017-Sep-25 12:00N 74°48' W 142°30'1515.2 240 / 121007.0 -1.1-1.3
2017-Sep-25 11:00N 75°00' W 143°06'1616.1 230 / 131007.0 -1.2-1.4
2017-Sep-25 10:00N 75°12' W 143°48'1515.1 230 / 151007.0 -1.1-1.3
2017-Sep-25 09:00N 75°24' W 144°24'1414.2 230 / 161006.9 -1.0-1.2
2017-Sep-25 08:00N 75°36' W 144°54'0 0.0 220 / 131007.3 -0.9-1.1
2017-Sep-25 07:00N 75°36' W 144°54'1 1.5 210 / 121007.8 -1.1-1.3
2017-Sep-25 06:00N 75°36' W 145°00'8 8.5 210 / 131008.1 -1.3-1.4
2017-Sep-25 05:00N 75°30' W 145°24'1313.5 210 / 141008.7 -1.0-1.2
2017-Sep-25 04:00N 75°24' W 146°12'1110.6 210 / 141009.2 -0.9-1.0
2017-Sep-25 03:00N 75°24' W 146°54'1514.9 210 / 141009.5 -0.7-0.9
2017-Sep-25 02:00N 75°18' W 147°48'1413.6 210 / 131009.8 -0.7-0.9
2017-Sep-25 01:00N 75°12' W 148°36'2613.0 210 / 141010.4 -0.5-0.7
2017-Sep-24 23:00N 75°00' W 150°06'0 0.0 230 / 131011.5 -0.1-0.2
2017-Sep-24 22:00N 75°00' W 150°06'2 1.6 210 / 121012.0 -0.4-0.7
2017-Sep-24 21:00N 75°00' W 150°12'0 0.0 220 / 101012.6 -0.5-0.8
2017-Sep-24 20:00N 75°00' W 150°12'0 0.0 220 / 101012.9 -0.1-1.0
2017-Sep-24 19:00N 75°00' W 150°12'2 1.6 240 / 111013.2 -0.2-1.1
2017-Sep-24 18:00N 75°00' W 150°18'0 0.0 140 / 11013.6 1.2-1.1
2017-Sep-24 17:00N 75°00' W 150°18'9 8.7 220 / 81013.8 0.5-1.6
2017-Sep-24 16:00N 74°54' W 149°54'6 6.0 240 / 101014.6 0.2-2.0
2017-Sep-24 15:00N 75°00' W 149°54'0 0.0 230 / 101015.1 0.2-1.9
2017-Sep-24 14:00N 75°00' W 149°54'6 6.0 200 / 81015.9 0.8-1.6
2017-Sep-24 13:00N 74°54' W 149°54'0 0.0 220 / 111016.4 0.1-2.1
2017-Sep-24 12:00N 74°54' W 149°54'6 6.0 220 / 111016.7 0.1-1.8
2017-Sep-24 11:00N 75°00' W 149°54'0 0.0 210 / 111017.3 0.1-1.6
2017-Sep-24 10:00N 75°00' W 149°54'0 0.0 240 / 81017.9 0.3-1.5
2017-Sep-24 09:00N 75°00' W 149°54'9 9.3 240 / 81018.4 0.3-1.1
2017-Sep-24 08:00N 75°00' W 150°30'1515.2 220 / 161018.4 0.4-1.6
2017-Sep-24 07:00N 75°06' W 151°24'1515.1 220 / 171018.7 0.4-1.7
2017-Sep-24 06:00N 75°12' W 152°18'1515.0 240 / 221018.8 0.6-2.4
2017-Sep-24 05:00N 75°18' W 153°12'2 1.5 220 / 131019.0 0.9-2.1
2017-Sep-24 04:00N 75°18' W 153°18'0 0.0 240 / 181019.5 0.1-2.1
2017-Sep-24 03:00N 75°18' W 153°18'0 0.0 230 / 161020.0 0.5-1.4
2017-Sep-24 02:00N 75°18' W 153°18'7 6.7 210 / 91020.7 0.8-0.9
2017-Sep-24 01:00N 75°12' W 153°06'1918.6 220 / 91021.3 0.7-0.6
2017-Sep-24 00:00N 74°54' W 152°48'1312.9 240 / 101022.1 0.7-0.9
2017-Sep-23 23:00N 74°42' W 152°30'1312.9 240 / 81022.9 0.9-0.8
2017-Sep-23 22:00N 74°30' W 152°12'0 0.0 250 / 61023.5 1.3-0.5
2017-Sep-23 21:00N 74°30' W 152°12'2 1.6 270 / 51023.8 1.3-0.7
2017-Sep-23 20:00N 74°30' W 152°18'2 1.6 240 / 11024.1 1.9-0.5
2017-Sep-23 19:00N 74°30' W 152°24'1616.5 280 / 61024.2 1.0-1.0
2017-Sep-23 18:00N 74°18' W 153°06'1414.3 300 / 71024.6 0.9-1.1
2017-Sep-23 17:00N 74°12' W 153°54'1414.4 220 / 41024.9 0.9-1.5
2017-Sep-23 16:00N 74°06' W 154°42'8 7.8 210 / 41025.0 0.7-2.1
2017-Sep-23 15:00N 74°00' W 155°00'0 0.0 1025.3 2.6-1.6
2017-Sep-23 14:00N 74°00' W 155°00'6 6.0 220 / 21025.6 2.3-1.8
2017-Sep-23 13:00N 73°54' W 155°00'7 6.9 250 / 41025.8 1.4-1.9
2017-Sep-23 12:00N 73°48' W 155°12'1212.1 140 / 31025.8 0.6-2.6
2017-Sep-23 11:00N 73°36' W 155°18'1212.1 110 / 71025.8 0.7-2.7
2017-Sep-23 10:00N 73°24' W 155°24'1313.1 100 / 81025.8 0.7-2.9
2017-Sep-23 09:00N 73°12' W 155°42'1818.1 070 / 111025.7 0.7-2.8
2017-Sep-23 08:00N 72°54' W 155°48'1312.5 090 / 141025.4 0.7-2.5
2017-Sep-23 07:00N 72°42' W 156°00'1312.5 070 / 151025.0 0.8-2.4
2017-Sep-23 06:00N 72°30' W 156°12'6 6.3 070 / 171024.7 1.0-2.0
2017-Sep-23 05:00N 72°24' W 156°18'0 0.0 070 / 151025.0 0.9-2.1
2017-Sep-23 04:00N 72°24' W 156°18'1212.1 070 / 171024.6 0.9-2.0
2017-Sep-23 03:00N 72°12' W 156°24'3115.3 060 / 191024.3 1.2-1.6
2017-Sep-23 01:00N 71°42' W 156°42'1818.4 060 / 191023.6 1.5-1.5
2017-Sep-23 00:00N 71°24' W 156°54'6 6.3 070 / 191023.3 1.6-1.7
2017-Sep-22 23:00N 71°18' W 157°00'2 1.9 060 / 31023.9 2.2-0.5
2017-Sep-22 22:00N 71°18' W 156°54'0 0.0 060 / 51024.0 2.1-0.4
2017-Sep-22 21:00N 71°18' W 156°54'1313.3 050 / 51024.2 3.4-0.0
2017-Sep-22 20:00N 71°30' W 156°36'8 8.3 040 / 101024.5 3.5-0.3
2017-Sep-22 19:00N 71°36' W 156°18'1313.3 050 / 161024.8 2.1 0.2
2017-Sep-22 18:00N 71°36' W 155°36'1515.2 070 / 201024.6 1.3-0.3
2017-Sep-22 17:00N 71°36' W 154°48'1515.2 070 / 211024.6 1.2-1.4
2017-Sep-22 16:00N 71°36' W 154°00'1817.9 070 / 201024.3 1.2-1.4
2017-Sep-22 15:00N 71°24' W 153°18'1313.4 080 / 231024.0 1.1-0.9
2017-Sep-22 14:00N 71°24' W 152°36'10 9.6 070 / 201024.0 1.0-0.5
2017-Sep-22 13:00N 71°24' W 152°06'2 1.9 060 / 221023.7 1.0-0.3
2017-Sep-22 12:00N 71°24' W 152°00'2 1.9 060 / 151023.9 1.6-1.2
2017-Sep-22 11:00N 71°24' W 151°54'0 0.0 100 / 171024.1 1.5-1.0
2017-Sep-22 10:00N 71°24' W 151°54'6 6.0 080 / 211024.1 1.7-0.6
2017-Sep-22 09:00N 71°30' W 151°54'0 0.0 040 / 111024.8 2.0-0.9
2017-Sep-22 08:00N 71°30' W 151°54'2 1.9 080 / 191024.9 1.7-0.8
2017-Sep-22 07:00N 71°30' W 151°48'2 1.9 070 / 211025.1 1.6-1.1
2017-Sep-22 06:00N 71°30' W 151°42'2 1.9 080 / 181025.5 1.4-0.6
2017-Sep-22 05:00N 71°30' W 151°36'0 0.0 070 / 221025.4 2.0-1.0
2017-Sep-22 04:00N 71°30' W 151°36'10 9.7 060 / 171025.5 2.1 0.4
2017-Sep-22 03:00N 71°36' W 151°12'4 3.8 070 / 221025.7 1.6 0.5
2017-Sep-22 02:00N 71°36' W 151°24'0 0.0 080 / 211026.2 2.5-0.4
2017-Sep-22 01:00N 71°36' W 151°24'7 7.1 070 / 201026.7 2.8 0.5
2017-Sep-22 00:00N 71°42' W 151°12'0 0.0 360 / 41027.3 3.5 0.6
2017-Sep-21 23:00N 71°42' W 151°12'2 1.9 080 / 161027.4 2.9-2.0
2017-Sep-21 22:00N 71°42' W 151°06'2 1.9 090 / 151028.0 2.8-3.2
2017-Sep-21 21:00N 71°42' W 151°00'1515.2 080 / 151028.4 3.1-1.9
2017-Sep-21 20:00N 71°54' W 150°30'4 3.7 080 / 161028.7 2.9-0.6
2017-Sep-21 19:00N 71°54' W 150°18'0 0.0 090 / 161028.7 2.7-1.9
2017-Sep-21 18:00N 71°54' W 150°18'6 6.3 080 / 131028.8 2.9-1.4
2017-Sep-21 17:00N 72°00' W 150°12'1818.1 090 / 111029.1 3.1-1.6
2017-Sep-21 16:00N 72°18' W 150°06'1212.1 080 / 111029.7 2.7-1.0
2017-Sep-21 15:00N 72°30' W 150°00'1818.0 050 / 41029.9 2.6-1.4
2017-Sep-21 14:00N 72°48' W 150°00'1212.0 330 / 41030.1 2.5-1.2
2017-Sep-21 13:00N 73°00' W 150°00'0 0.0 300 / 61030.2 2.7-0.3
2017-Sep-21 12:00N 73°00' W 150°00'0 0.0 310 / 71030.0 2.7-0.4
2017-Sep-21 11:00N 73°00' W 150°00'6 6.0 310 / 81030.0 2.8-0.5
2017-Sep-21 10:00N 73°06' W 150°00'1212.0 260 / 71029.4 2.5 1.3
2017-Sep-21 09:00N 73°18' W 150°00'1212.0 250 / 71029.1 2.1 1.4
2017-Sep-21 08:00N 73°30' W 150°00'1818.0 240 / 61028.8 1.8 1.1
2017-Sep-21 07:00N 73°48' W 150°00'1212.0 230 / 81028.1 1.7 0.8
2017-Sep-21 06:00N 74°00' W 150°00'0 0.0 260 / 81027.9 1.4 0.4
2017-Sep-21 05:00N 74°00' W 150°00'0 0.0 280 / 101027.7 1.8 0.2
2017-Sep-21 04:00N 74°00' W 150°00'6 6.2 280 / 101027.2 1.8-0.0
2017-Sep-21 03:00N 74°06' W 149°54'1212.0 260 / 121026.2 2.1 0.4
2017-Sep-21 02:00N 74°18' W 149°54'1818.0
2017-Sep-21 01:00N 74°36' W 149°54'1212.0
2017-Sep-21 00:00N 74°48' W 149°54'1212.0 250 / 151023.5 1.6 0.6
2017-Sep-20 23:00N 75°00' W 149°54'0 0.0 210 / 21023.4 2.0 0.4
2017-Sep-20 22:00N 75°00' W 149°54'0 0.0 260 / 131022.9 0.9 0.1
2017-Sep-20 21:00N 75°00' W 149°54'0 0.0 260 / 141022.3 0.8-0.0
2017-Sep-20 20:00N 75°00' W 149°54'0 0.0 270 / 141021.9 0.7 0.2
2017-Sep-20 19:00N 75°00' W 149°54'2 1.6 300 / 121021.4 0.9 0.4
2017-Sep-20 18:00N 75°00' W 150°00'1212.0 240 / 151020.4 0.5 0.3
2017-Sep-20 17:00N 75°12' W 150°00'1818.0 210 / 141019.6 0.6 0.1
2017-Sep-20 16:00N 75°30' W 150°00'2412.0 200 / 141018.9 0.5-0.3
2017-Sep-20 14:00N 75°54' W 149°54'0 0.0 240 / 141018.2 0.6-0.3
2017-Sep-20 13:00N 75°54' W 149°54'0 0.0 240 / 161017.9 0.4-0.5
2017-Sep-20 12:00N 75°54' W 149°54'1212.1 240 / 151017.7 0.4-0.8
2017-Sep-20 11:00N 76°06' W 150°00'1212.0 250 / 151016.7 0.6-1.4
2017-Sep-20 10:00N 76°18' W 150°00'1818.1 240 / 121015.9 -0.1-1.1
2017-Sep-20 09:00N 76°36' W 149°54'1212.0 230 / 131015.2 0.1-1.1
2017-Sep-20 08:00N 76°48' W 149°54'1212.0 230 / 121014.5 -0.3-1.0
2017-Sep-20 07:00N 77°00' W 149°54'0 0.0 250 / 131014.2 -0.3-1.1
2017-Sep-20 06:00N 77°00' W 149°54'0 0.0 240 / 131013.9 -0.3-1.2
2017-Sep-20 05:00N 77°00' W 149°54'6 6.1 240 / 151013.6 -0.4-1.9
2017-Sep-20 04:00N 77°06' W 150°00'1212.0 220 / 131012.6 -0.5-2.7
2017-Sep-20 03:00N 77°18' W 150°00'1818.0 220 / 121012.1 -1.1-3.5
2017-Sep-20 02:00N 77°36' W 150°06'1212.0 250 / 151011.6 -1.1-4.0
2017-Sep-20 01:00N 77°48' W 150°06'1212.3 250 / 141010.8 -0.9-3.9
2017-Sep-20 00:00N 78°00' W 149°54'0 0.0 260 / 101010.9 -1.3-4.2
2017-Sep-19 23:00N 78°00' W 149°54'0 0.0 270 / 61010.8 -1.9-4.9
2017-Sep-19 22:00N 78°00' W 149°54'1 1.2 290 / 71010.5 -2.5-5.1
2017-Sep-19 21:00N 78°00' W 150°00'1 1.2 290 / 101010.2 -2.5-5.3
2017-Sep-19 20:00N 78°00' W 150°06'0 0.0 310 / 71010.0 -2.5-5.3
2017-Sep-19 19:00N 78°00' W 150°06'1 1.2 290 / 71009.6 -2.1-5.0
2017-Sep-19 18:00N 78°00' W 150°00'6 6.1 330 / 51008.9 -2.5-4.8
2017-Sep-19 17:00N 77°54' W 149°54'0 0.0 340 / 51008.5 -2.0-2.9
2017-Sep-19 16:00N 77°54' W 149°54'0 0.0 340 / 61008.2 -2.3-2.6
2017-Sep-19 15:00N 77°54' W 149°54'0 0.0 360 / 51007.7 -2.2-2.4
2017-Sep-19 14:00N 77°54' W 149°54'0 0.0 330 / 91007.3 -2.2-2.3
2017-Sep-19 13:00N 77°54' W 149°54'1 1.3 340 / 81006.7 -2.1-2.2
2017-Sep-19 12:00N 77°54' W 150°00'1010.1 340 / 61006.3 -1.7-1.8
2017-Sep-19 11:00N 77°54' W 149°12'1312.6 060 / 71006.1 -1.5-1.6
2017-Sep-19 10:00N 77°54' W 148°12'1717.5 140 / 71006.5 -1.2-1.3
2017-Sep-19 09:00N 77°42' W 147°12'1515.3 130 / 121006.8 -0.7-0.8
2017-Sep-19 08:00N 77°36' W 146°06'1313.1 130 / 121007.8 -0.9-0.9
2017-Sep-19 07:00N 77°30' W 145°12'1 1.3 130 / 111008.2 -0.7-0.8
2017-Sep-19 06:00N 77°30' W 145°06'0 0.0 170 / 91008.9 -1.0-1.1
2017-Sep-19 05:00N 77°30' W 145°06'0 0.0 170 / 101009.3 -1.1-1.2
2017-Sep-19 04:00N 77°30' W 145°06'1110.9 180 / 111009.4 -1.2-1.3
2017-Sep-19 03:00N 77°36' W 145°48'1313.0 170 / 161009.6 -1.3-1.4
2017-Sep-19 02:00N 77°42' W 146°42'1312.9 170 / 161010.0 -1.6-1.7
2017-Sep-19 01:00N 77°48' W 147°36'1414.0 160 / 161010.4 -1.6-1.7
2017-Sep-19 00:00N 77°54' W 148°36'1111.3 160 / 141010.9 -1.6-1.9
2017-Sep-18 23:00N 77°54' W 149°30'8 7.8 160 / 111011.7 -1.8-2.1
2017-Sep-18 22:00N 78°00' W 149°54'0 0.0 140 / 21012.3 -0.8-1.9
2017-Sep-18 21:00N 78°00' W 149°54'0 0.0 150 / 111012.5 -1.8-2.5
2017-Sep-18 20:00N 78°00' W 149°54'0 0.0 150 / 91012.8 -1.7-2.5
2017-Sep-18 19:00N 78°00' W 149°54'6 6.0 140 / 51012.9 -1.4-2.7
2017-Sep-18 18:00N 77°54' W 149°54'0 0.0 160 / 121013.0 -2.3-2.9
2017-Sep-18 17:00N 77°54' W 149°54'0 0.0 140 / 51013.3 -1.5-2.7
2017-Sep-18 16:00N 77°54' W 149°54'0 0.0 160 / 121013.5 -2.4-2.9
2017-Sep-18 15:00N 77°54' W 149°54'6 6.1 160 / 131013.5 -2.4-2.7
2017-Sep-18 14:00N 78°00' W 150°00'2 2.5 150 / 131013.7 -2.5-2.7
2017-Sep-18 13:00N 78°00' W 150°12'1211.6 160 / 151013.6 -2.6-2.8
2017-Sep-18 12:00N 78°06' W 151°00'10 9.5 170 / 161013.7 -2.7-2.9
2017-Sep-18 11:00N 78°12' W 151°36'10 9.8 160 / 131013.9 -2.7-2.9
2017-Sep-18 10:00N 78°12' W 152°24'1010.4 170 / 111013.9 -2.8-3.0
2017-Sep-18 09:00N 78°18' W 153°06'0 0.0 160 / 91014.2 -2.8-3.1
2017-Sep-18 08:00N 78°18' W 153°06'0 0.0 150 / 71014.4 -2.6-2.8
2017-Sep-18 07:00N 78°18' W 153°06'6 6.5 180 / 91014.4 -3.0-3.3
2017-Sep-18 06:00N 78°24' W 152°54'1111.3 160 / 81014.4 -3.6-3.9
2017-Sep-18 05:00N 78°30' W 152°06'2411.8 170 / 91014.6 -4.3-4.7
2017-Sep-18 03:00N 78°48' W 150°48'1111.1 240 / 41015.0 -5.8-6.4
2017-Sep-18 02:00N 78°54' W 150°00'1 1.2 240 / 61015.4 -6.2-6.8
2017-Sep-18 01:00N 78°54' W 149°54'0 0.0 250 / 71015.4 -6.1-6.7
2017-Sep-18 00:00N 78°54' W 149°54'0 0.0 280 / 61015.4 -6.1-6.8
2017-Sep-17 23:00N 78°54' W 149°54'1818.1 250 / 71015.0 -6.7-7.4
2017-Sep-17 22:00N 79°12' W 150°06'1818.1 270 / 91014.9 -7.7-8.6
2017-Sep-17 21:00N 79°30' W 149°54'1212.0 290 / 51015.3 -10.1-11.2
2017-Sep-17 20:00N 79°42' W 149°54'6 6.0 270 / 91014.9 -12.1-13.4
2017-Sep-17 19:00N 79°48' W 149°54'6 6.4 290 / 111014.7 -13.1-14.6
2017-Sep-17 18:00N 79°54' W 149°42'1 1.1 280 / 101014.6 -13.1-14.5
2017-Sep-17 17:00N 79°54' W 149°48'6 6.1 270 / 71014.6 -12.6-13.9
2017-Sep-17 16:00N 80°00' W 149°42'0 0.0 280 / 61014.5 -11.4-12.6
2017-Sep-17 15:00N 80°00' W 149°42'0 0.0 270 / 81014.3 -11.8-13.1
2017-Sep-17 14:00N 80°00' W 149°42'6 6.4 280 / 41014.4 -10.4-11.6
2017-Sep-17 13:00N 79°54' W 149°54'0 0.0 290 / 81014.6 -11.9-13.2
2017-Sep-17 12:00N 79°54' W 149°54'0 0.0 300 / 71014.7 -11.4-12.7
2017-Sep-17 11:00N 79°54' W 149°54'0 0.0 310 / 81014.8 -11.5-12.7
2017-Sep-17 10:00N 79°54' W 149°54'1110.5 310 / 91014.6 -10.9-12.1
2017-Sep-17 09:00N 79°54' W 148°54'1211.6 340 / 131014.2 -12.3-13.6
2017-Sep-17 08:00N 79°54' W 147°48'9 8.7 350 / 121014.2 -14.0-15.5
2017-Sep-17 07:00N 79°48' W 147°12'1312.8 350 / 111014.0 -13.7-15.2
2017-Sep-17 06:00N 79°48' W 146°00'1313.2 330 / 91013.9 -13.6-15.1
2017-Sep-17 05:00N 79°42' W 144°54'8 7.5 340 / 141013.8 -13.9-15.4
2017-Sep-17 04:00N 79°42' W 144°12'1 1.1 320 / 81014.0 -13.0-14.5
2017-Sep-17 03:00N 79°42' W 144°06'1312.7 290 / 91014.1 -12.8-14.3
2017-Sep-17 02:00N 79°54' W 143°42'7 6.8 300 / 91013.9 -13.0-14.5
2017-Sep-17 01:00N 80°00' W 143°24'1312.7 310 / 161013.7 -12.8-14.3
2017-Sep-17 00:00N 80°12' W 143°00'1111.2 320 / 131013.3 -12.6-14.1
2017-Sep-16 23:00N 80°12' W 141°54'1413.9 310 / 191013.4 -12.2-13.7
2017-Sep-16 22:00N 80°24' W 141°12'7 7.2 310 / 141013.1 -12.1-13.6
2017-Sep-16 21:00N 80°30' W 140°48'1 1.0 300 / 91013.5 -11.7-13.1
2017-Sep-16 20:00N 80°30' W 140°42'0 0.0 310 / 101013.4 -11.3-12.7
2017-Sep-16 19:00N 80°30' W 140°42'1 1.0 310 / 81013.7 -11.7-13.1
2017-Sep-16 18:00N 80°30' W 140°48'0 0.0 310 / 81013.8 -12.1-13.6
2017-Sep-16 17:00N 80°30' W 140°48'6 6.1 300 / 81014.1 -12.4-13.9
2017-Sep-16 16:00N 80°36' W 140°54'0 0.0 310 / 91014.2 -13.0-14.6
2017-Sep-16 15:00N 80°36' W 140°54'1 0.5 300 / 101014.4 -13.8-15.3
2017-Sep-16 13:00N 80°36' W 141°00'1 1.0 300 / 81015.0 -13.3-14.8
2017-Sep-16 12:00N 80°36' W 141°06'0 0.0 310 / 71015.4 -12.3-13.7
2017-Sep-16 11:00N 80°36' W 141°06'0 0.0 330 / 71015.7 -12.3-13.7
2017-Sep-16 10:00N 80°36' W 141°06'0 0.0 330 / 101015.8 -13.0-14.4
2017-Sep-16 09:00N 80°36' W 141°06'0 0.0 310 / 91016.0 -13.2-14.6
2017-Sep-16 08:00N 80°36' W 141°06'5 4.9 320 / 101016.1 -13.0-14.4
2017-Sep-16 07:00N 80°36' W 140°36'19 9.3 350 / 151015.5 -12.7-14.1
2017-Sep-16 05:00N 80°42' W 138°48'   360 / 161015.1 -12.4-13.8

Dump ship's entire track history